createdAt,value
2023-07-06T00:00:29.220Z,95022.09
2023-07-06T00:02:55.613Z,95030.13
2023-07-06T00:05:22.253Z,95025.28
2023-07-06T00:07:48.620Z,95034.72
2023-07-06T00:10:15.187Z,95041.31
2023-07-06T00:12:41.561Z,95044.13
2023-07-06T00:15:08.077Z,95041.22
2023-07-06T00:17:34.792Z,95032.16
2023-07-06T00:20:01.219Z,95025.59
2023-07-06T00:22:27.594Z,95018.81
2023-07-06T00:24:53.954Z,95015.50
2023-07-06T00:27:20.300Z,95013.22
2023-07-06T00:29:46.766Z,95014.66
2023-07-06T00:32:13.193Z,95014.81
2023-07-06T00:34:39.533Z,95012.00
2023-07-06T00:37:05.889Z,95008.72
2023-07-06T00:39:32.237Z,95007.13
2023-07-06T00:41:58.601Z,95006.66
2023-07-06T00:44:25.041Z,95005.66
2023-07-06T00:46:51.554Z,94999.50
2023-07-06T00:49:20.301Z,95003.78
2023-07-06T00:51:46.891Z,95004.59
2023-07-06T00:54:13.283Z,95007.50
2023-07-06T00:56:39.660Z,95004.81
2023-07-06T00:59:06.222Z,95004.22
2023-07-06T01:01:32.603Z,94998.88
2023-07-06T01:03:59.000Z,94999.72
2023-07-06T01:06:25.399Z,94999.91
2023-07-06T01:08:51.861Z,95001.78
2023-07-06T01:11:18.266Z,95000.75
2023-07-06T01:13:46.875Z,94998.97
2023-07-06T01:16:14.494Z,94998.34
2023-07-06T01:18:41.054Z,95005.31
2023-07-06T01:21:07.423Z,94994.84
2023-07-06T01:23:33.906Z,94996.28
2023-07-06T01:26:00.298Z,94991.97
2023-07-06T01:28:26.984Z,94991.56
2023-07-06T01:30:53.916Z,94994.03
2023-07-06T01:33:20.322Z,94996.88
2023-07-06T01:35:46.841Z,94991.13
2023-07-06T01:38:13.226Z,94998.97
2023-07-06T01:40:39.704Z,94991.75
2023-07-06T01:43:06.103Z,94995.25
2023-07-06T01:45:32.478Z,94994.63
2023-07-06T01:47:58.921Z,94985.00
2023-07-06T01:50:25.335Z,94981.72
2023-07-06T01:52:51.681Z,94974.13
2023-07-06T01:55:18.065Z,94970.63
2023-07-06T01:58:00.210Z,94970.25
2023-07-06T02:00:27.636Z,94964.91
2023-07-06T02:02:54.427Z,94968.41
2023-07-06T02:05:20.824Z,94956.06
2023-07-06T02:07:47.296Z,94964.91
2023-07-06T02:10:14.086Z,94960.81
2023-07-06T02:12:40.725Z,94950.34
2023-07-06T02:15:07.125Z,94944.00
2023-07-06T02:17:33.523Z,94936.63
2023-07-06T02:19:59.976Z,94941.13
2023-07-06T02:22:26.422Z,94937.03
2023-07-06T02:24:52.774Z,94943.63
2023-07-06T02:27:19.145Z,94933.34
2023-07-06T02:29:45.609Z,94950.81
2023-07-06T02:32:12.190Z,94942.44
2023-07-06T02:34:38.640Z,94942.91
2023-07-06T02:37:05.268Z,94946.19
2023-07-06T02:39:31.650Z,94943.56
2023-07-06T02:41:58.163Z,94934.13
2023-07-06T02:44:24.528Z,94926.75
2023-07-06T02:46:50.967Z,94928.41
2023-07-06T02:49:17.436Z,94926.13
2023-07-06T02:51:44.332Z,94922.25
2023-07-06T02:54:12.837Z,94919.97
2023-07-06T02:56:39.214Z,94914.84
2023-07-06T02:59:07.889Z,94918.97
2023-07-06T03:01:34.503Z,94919.97
2023-07-06T03:04:03.698Z,94923.69
2023-07-06T03:06:30.094Z,94917.97
2023-07-06T03:08:56.551Z,94920.84
2023-07-06T03:11:22.983Z,94930.28
2023-07-06T03:13:51.007Z,94920.84
2023-07-06T03:16:18.815Z,94926.41
2023-07-06T03:18:45.445Z,94922.09
2023-07-06T03:21:11.838Z,94916.13
2023-07-06T03:23:38.244Z,94920.03
2023-07-06T03:26:04.618Z,94918.00
2023-07-06T03:28:31.031Z,94918.63
2023-07-06T03:30:57.404Z,94919.41
2023-07-06T03:33:23.796Z,94923.75
2023-07-06T03:35:50.245Z,94916.56
2023-07-06T03:38:16.621Z,94913.50
2023-07-06T03:40:42.968Z,94907.75
2023-07-06T03:43:09.402Z,94913.50
2023-07-06T03:45:36.557Z,94912.69
2023-07-06T03:48:03.085Z,94912.06
2023-07-06T03:50:29.543Z,94913.72
2023-07-06T03:52:56.319Z,94917.00
2023-07-06T03:55:22.730Z,94914.13
2023-07-06T03:58:02.848Z,94919.66
2023-07-06T04:00:30.658Z,94913.91
2023-07-06T04:02:57.277Z,94926.63
2023-07-06T04:05:25.125Z,94928.28
2023-07-06T04:07:53.731Z,94924.56
2023-07-06T04:10:20.152Z,94919.25
2023-07-06T04:12:47.340Z,94924.78
2023-07-06T04:15:13.741Z,94929.72
2023-07-06T04:17:40.782Z,94927.44
2023-07-06T04:20:07.190Z,94927.03
2023-07-06T04:22:33.669Z,94923.94
2023-07-06T04:25:00.173Z,94928.47
2023-07-06T04:27:26.520Z,94932.97
2023-07-06T04:29:53.071Z,94939.13
2023-07-06T04:32:19.564Z,94941.78
2023-07-06T04:34:46.012Z,94937.88
2023-07-06T04:37:12.567Z,94936.00
2023-07-06T04:39:39.325Z,94932.31
2023-07-06T04:42:05.690Z,94936.41
2023-07-06T04:44:34.314Z,94933.53
2023-07-06T04:47:01.622Z,94929.41
2023-07-06T04:49:27.965Z,94926.34
2023-07-06T04:51:55.340Z,94925.69
2023-07-06T04:54:21.715Z,94937.56
2023-07-06T04:56:48.107Z,94938.75
2023-07-06T04:59:16.762Z,94935.03
2023-07-06T05:01:43.217Z,94935.88
2023-07-06T05:04:10.489Z,94952.69
2023-07-06T05:06:36.989Z,94949.34
2023-07-06T05:09:03.368Z,94947.53
2023-07-06T05:11:29.770Z,94951.34
2023-07-06T05:13:56.195Z,94942.25
2023-07-06T05:16:22.640Z,94935.44
2023-07-06T05:18:49.028Z,94942.19
2023-07-06T05:21:16.149Z,94944.63
2023-07-06T05:23:42.651Z,94937.38
2023-07-06T05:26:09.019Z,94938.13
2023-07-06T05:28:35.367Z,94928.38
2023-07-06T05:31:01.797Z,94933.41
2023-07-06T05:33:28.216Z,94927.34
2023-07-06T05:35:55.201Z,94929.59
2023-07-06T05:38:22.175Z,94928.50
2023-07-06T05:40:48.751Z,94929.50
2023-07-06T05:43:15.155Z,94930.91
2023-07-06T05:45:41.561Z,94936.41
2023-07-06T05:48:08.193Z,94929.47
2023-07-06T05:50:34.578Z,94931.72
2023-07-06T05:53:00.951Z,94934.44
2023-07-06T05:55:27.559Z,94951.91
2023-07-06T05:57:53.997Z,94956.47
2023-07-06T06:00:20.339Z,94946.94
2023-07-06T06:02:46.895Z,94949.28
2023-07-06T06:05:13.370Z,94954.59
2023-07-06T06:07:40.010Z,94950.03
2023-07-06T06:10:06.394Z,94944.03
2023-07-06T06:12:32.761Z,94951.75
2023-07-06T06:14:59.554Z,94950.56
2023-07-06T06:17:28.542Z,94949.41
2023-07-06T06:19:55.246Z,94955.19
2023-07-06T06:22:21.622Z,94946.91
2023-07-06T06:24:48.128Z,94947.47
2023-07-06T06:27:14.665Z,94942.22
2023-07-06T06:29:41.062Z,94945.13
2023-07-06T06:32:07.524Z,94952.44
2023-07-06T06:34:33.950Z,94956.19
2023-07-06T06:37:00.565Z,94959.53
2023-07-06T06:39:27.012Z,94966.19
2023-07-06T06:41:53.551Z,94961.34
2023-07-06T06:44:20.201Z,94958.59
2023-07-06T06:46:46.775Z,94958.72
2023-07-06T06:49:13.400Z,94952.50
2023-07-06T06:51:39.786Z,94957.00
2023-07-06T06:54:06.164Z,94960.06
2023-07-06T06:56:32.629Z,94953.09
2023-07-06T06:58:59.012Z,94957.78
2023-07-06T07:01:27.912Z,94962.06
2023-07-06T07:03:54.460Z,94954.66
2023-07-06T07:06:21.032Z,94948.81
2023-07-06T07:08:47.713Z,94954.97
2023-07-06T07:11:23.098Z,94953.50
2023-07-06T07:13:50.754Z,94959.63
2023-07-06T07:16:17.520Z,94959.34
2023-07-06T07:18:44.011Z,94955.44
2023-07-06T07:21:10.365Z,94960.25
2023-07-06T07:23:37.088Z,94958.28
2023-07-06T07:26:03.513Z,94959.09
2023-07-06T07:28:29.885Z,94966.28
2023-07-06T07:30:56.277Z,94961.69
2023-07-06T07:33:22.688Z,94960.00
2023-07-06T07:35:51.315Z,94970.31
2023-07-06T07:38:17.673Z,94969.09
2023-07-06T07:40:44.087Z,94966.72
2023-07-06T07:43:10.428Z,94965.44
2023-07-06T07:45:36.809Z,94962.66
2023-07-06T07:48:03.262Z,94967.16
2023-07-06T07:50:29.724Z,94969.41
2023-07-06T07:52:56.072Z,94967.00
2023-07-06T07:55:22.447Z,94967.63
2023-07-06T07:57:48.831Z,94961.19
2023-07-06T08:00:15.213Z,94976.38
2023-07-06T08:02:41.670Z,94966.28
2023-07-06T08:05:08.108Z,94964.63
2023-07-06T08:07:34.749Z,94962.28
2023-07-06T08:10:01.136Z,94976.13
2023-07-06T08:12:27.605Z,94972.44
2023-07-06T08:14:54.022Z,94972.84
2023-07-06T08:17:20.764Z,94975.81
2023-07-06T08:19:53.081Z,94971.63
2023-07-06T08:22:33.631Z,94969.91
2023-07-06T08:25:00.241Z,94968.19
2023-07-06T08:27:26.581Z,94967.16
2023-07-06T08:29:53.020Z,94970.63
2023-07-06T08:32:22.204Z,94967.69
2023-07-06T08:34:48.767Z,94965.22
2023-07-06T08:37:15.256Z,94980.09
2023-07-06T08:39:41.599Z,94971.25
2023-07-06T08:42:07.932Z,94978.53
2023-07-06T08:44:34.286Z,94974.69
2023-07-06T08:47:00.819Z,94969.59
2023-07-06T08:49:29.896Z,94966.13
2023-07-06T08:51:57.151Z,94973.09
2023-07-06T08:54:23.526Z,94967.44
2023-07-06T08:56:49.959Z,94975.66
2023-07-06T08:59:16.295Z,94967.63
2023-07-06T09:01:43.090Z,94963.50
2023-07-06T09:04:09.704Z,94957.25
2023-07-06T09:06:36.053Z,94972.06
2023-07-06T09:09:02.419Z,94962.69
2023-07-06T09:11:28.757Z,94961.53
2023-07-06T09:13:55.255Z,94960.84
2023-07-06T09:16:21.836Z,94960.81
2023-07-06T09:18:48.392Z,94962.47
2023-07-06T09:21:14.999Z,94965.22
2023-07-06T09:23:41.397Z,94959.72
2023-07-06T09:26:14.217Z,94965.75
2023-07-06T09:28:46.909Z,94959.97
2023-07-06T09:31:13.320Z,94960.09
2023-07-06T09:33:39.707Z,94965.31
2023-07-06T09:36:06.369Z,94961.53
2023-07-06T09:38:33.766Z,94954.56
2023-07-06T09:41:00.207Z,94955.13
2023-07-06T09:43:26.616Z,94955.41
2023-07-06T09:45:53.057Z,94956.22
2023-07-06T09:48:19.921Z,94962.44
2023-07-06T09:50:46.496Z,94962.50
2023-07-06T09:53:12.954Z,94960.09
2023-07-06T09:55:39.446Z,94963.59
2023-07-06T09:58:08.078Z,94955.84
2023-07-06T10:00:34.582Z,94959.84
2023-07-06T10:03:01.076Z,94955.56
2023-07-06T10:05:27.797Z,94956.72
2023-07-06T10:07:54.177Z,94951.19
2023-07-06T10:10:20.903Z,94955.38
2023-07-06T10:12:52.949Z,94953.34
2023-07-06T10:15:19.342Z,94962.31
2023-07-06T10:20:27.859Z,94957.25
2023-07-06T10:22:54.259Z,94955.22
2023-07-06T10:25:20.781Z,94960.44
2023-07-06T10:27:53.794Z,94954.84
2023-07-06T10:30:20.514Z,94954.03
2023-07-06T10:38:09.645Z,94954.69
2023-07-06T10:40:36.044Z,94949.34
2023-07-06T10:43:02.437Z,94939.31
2023-07-06T10:45:29.054Z,94946.13
2023-07-06T10:47:55.529Z,94947.69
2023-07-06T10:50:21.915Z,94948.06
2023-07-06T10:52:48.260Z,94936.31
2023-07-06T11:03:07.939Z,94946.22
2023-07-06T11:05:37.127Z,94942.91
2023-07-06T11:08:05.123Z,94934.97
2023-07-06T11:10:31.509Z,94939.00
2023-07-06T11:12:57.972Z,94938.59
2023-07-06T11:15:24.691Z,94930.31
2023-07-06T11:17:51.249Z,94931.03
2023-07-06T11:20:17.644Z,94936.16
2023-07-06T11:22:44.249Z,94933.69
2023-07-06T11:25:10.625Z,94927.69
2023-07-06T11:27:37.098Z,94931.19
2023-07-06T11:30:03.485Z,94930.59
2023-07-06T11:32:29.903Z,94930.34
2023-07-06T11:34:56.303Z,94925.56
2023-07-06T11:37:23.692Z,94930.28
2023-07-06T11:39:50.131Z,94926.94
2023-07-06T11:42:16.614Z,94920.88
2023-07-06T11:44:42.991Z,94921.25
2023-07-06T11:47:09.435Z,94923.72
2023-07-06T11:49:35.966Z,94926.63
2023-07-06T11:52:02.328Z,94916.97
2023-07-06T11:54:28.673Z,94926.84
2023-07-06T11:56:55.199Z,94928.06
2023-07-06T11:59:21.616Z,94925.38
2023-07-06T12:01:48.072Z,94920.56
2023-07-06T12:04:14.472Z,94922.72
2023-07-06T12:06:40.912Z,94912.84
2023-07-06T12:09:07.302Z,94912.25
2023-07-06T12:11:33.846Z,94906.16
2023-07-06T12:14:00.288Z,94894.69
2023-07-06T12:16:26.803Z,94903.75
2023-07-06T12:18:53.639Z,94892.38
2023-07-06T12:21:20.017Z,94894.25
2023-07-06T12:23:46.406Z,94894.44
2023-07-06T12:26:12.912Z,94893.16
2023-07-06T12:28:39.383Z,94884.16
2023-07-06T12:31:05.880Z,94890.78
2023-07-06T12:33:32.359Z,94892.66
2023-07-06T12:35:59.183Z,94886.94
2023-07-06T12:38:25.824Z,94889.28
2023-07-06T12:40:52.293Z,94886.66
2023-07-06T12:43:18.676Z,94887.13
2023-07-06T12:45:45.148Z,94883.59
2023-07-06T12:48:11.607Z,94884.19
2023-07-06T12:50:38.456Z,94883.38
2023-07-06T12:53:04.801Z,94883.22
2023-07-06T12:55:31.146Z,94880.88
2023-07-06T12:57:57.497Z,94875.53
2023-07-06T13:00:23.885Z,94872.53
2023-07-06T13:02:51.454Z,94862.22
2023-07-06T13:05:18.061Z,94865.47
2023-07-06T13:07:46.798Z,94867.66
2023-07-06T13:10:13.145Z,94860.06
2023-07-06T13:12:39.483Z,94861.13
2023-07-06T13:15:06.199Z,94857.88
2023-07-06T13:17:32.704Z,94853.88
2023-07-06T13:19:59.218Z,94856.25
2023-07-06T13:22:25.624Z,94863.28
2023-07-06T13:24:53.359Z,94855.63
2023-07-06T13:27:19.736Z,94862.66
2023-07-06T13:29:46.184Z,94854.31
2023-07-06T13:32:12.585Z,94853.47
2023-07-06T13:34:39.025Z,94847.59
2023-07-06T13:37:05.506Z,94844.38
2023-07-06T13:39:31.884Z,94853.03
2023-07-06T13:41:58.345Z,94846.53
2023-07-06T13:44:24.694Z,94842.50
2023-07-06T13:46:51.083Z,94834.59
2023-07-06T13:49:17.638Z,94850.66
2023-07-06T13:51:44.140Z,94852.94
2023-07-06T13:54:10.535Z,94840.84
2023-07-06T13:56:36.904Z,94843.03
2023-07-06T13:59:03.257Z,94839.75
2023-07-06T14:01:29.617Z,94841.09
2023-07-06T14:03:56.133Z,94845.47
2023-07-06T14:06:22.659Z,94841.13
2023-07-06T14:08:49.372Z,94852.50
2023-07-06T14:11:15.766Z,94839.19
2023-07-06T14:13:45.314Z,94839.19
2023-07-06T14:16:12.677Z,94833.19
2023-07-06T14:18:39.147Z,94827.72
2023-07-06T14:21:05.529Z,94826.34
2023-07-06T14:23:32.349Z,94823.31
2023-07-06T14:25:58.989Z,94825.91
2023-07-06T14:28:25.575Z,94832.16
2023-07-06T14:30:51.989Z,94838.63
2023-07-06T14:33:18.333Z,94835.88
2023-07-06T14:35:47.999Z,94833.03
2023-07-06T14:38:15.595Z,94837.28
2023-07-06T14:40:43.033Z,94831.84
2023-07-06T14:43:09.695Z,94826.84
2023-07-06T14:45:36.060Z,94824.31
2023-07-06T14:48:05.805Z,94827.03
2023-07-06T14:50:32.195Z,94830.81
2023-07-06T14:53:00.907Z,94831.94
2023-07-06T14:55:27.301Z,94825.44
2023-07-06T14:57:54.737Z,94823.00
2023-07-06T15:00:21.147Z,94816.75
2023-07-06T15:02:49.841Z,94821.00
2023-07-06T15:05:16.352Z,94821.47
2023-07-06T15:07:44.978Z,94816.53
2023-07-06T15:10:11.682Z,94813.22
2023-07-06T15:12:38.374Z,94807.56
2023-07-06T15:15:04.729Z,94817.56
2023-07-06T15:17:31.488Z,94815.59
2023-07-06T15:19:58.029Z,94817.25
2023-07-06T15:22:24.426Z,94818.59
2023-07-06T15:24:55.240Z,94824.25
2023-07-06T15:27:22.354Z,94812.19
2023-07-06T15:29:49.246Z,94820.41
2023-07-06T15:32:15.983Z,94821.19
2023-07-06T15:34:55.916Z,94819.19
2023-07-06T15:37:26.126Z,94821.81
2023-07-06T15:39:52.532Z,94820.19
2023-07-06T16:17:12.113Z,94815.66
2023-07-06T16:19:38.548Z,94815.13
2023-07-06T16:22:04.921Z,94816.44
2023-07-06T16:24:31.266Z,94809.97
2023-07-06T16:27:01.724Z,94810.78
2023-07-06T16:29:28.360Z,94811.63
2023-07-06T16:31:54.730Z,94820.25
2023-07-06T16:34:21.124Z,94820.00
2023-07-06T16:36:47.501Z,94816.72
2023-07-06T16:39:13.849Z,94823.19
2023-07-06T16:41:40.224Z,94816.97
2023-07-06T16:44:06.718Z,94817.25
2023-07-06T16:46:33.163Z,94815.13
2023-07-06T16:48:59.631Z,94821.09
2023-07-06T16:51:26.015Z,94819.19
2023-07-06T16:53:53.406Z,94823.78
2023-07-06T16:56:21.832Z,94816.69
2023-07-06T16:58:48.575Z,94821.56
2023-07-06T17:01:15.287Z,94822.31
2023-07-06T17:03:42.000Z,94821.44
2023-07-06T17:06:08.434Z,94827.59
2023-07-06T17:08:34.861Z,94826.94
2023-07-06T17:11:01.365Z,94831.69
2023-07-06T17:13:27.945Z,94825.34
2023-07-06T17:15:54.607Z,94827.56
2023-07-06T17:18:22.257Z,94836.16
2023-07-06T17:20:50.688Z,94834.78
2023-07-06T17:23:22.274Z,94834.81
2023-07-06T17:25:48.634Z,94844.75
2023-07-06T17:28:15.223Z,94842.00
2023-07-06T17:30:42.578Z,94834.69
2023-07-06T17:33:08.943Z,94836.19
2023-07-06T17:35:36.463Z,94832.16
2023-07-06T17:38:03.780Z,94835.66
2023-07-06T17:48:36.261Z,94835.59
2023-07-06T17:51:04.723Z,94843.13
2023-07-06T17:53:31.099Z,94841.19
2023-07-06T17:55:57.788Z,94844.97
2023-07-06T17:58:24.367Z,94840.91
2023-07-06T18:00:50.754Z,94844.69
2023-07-06T18:03:17.607Z,94840.59
2023-07-06T18:05:44.309Z,94839.28
2023-07-06T18:08:12.921Z,94847.41
2023-07-06T18:10:39.261Z,94846.59
2023-07-06T18:13:05.640Z,94855.00
2023-07-06T18:15:32.034Z,94847.72
2023-07-06T18:18:00.677Z,94853.13
2023-07-06T18:20:35.174Z,94849.06
2023-07-06T18:23:01.653Z,94854.50
2023-07-06T18:25:28.311Z,94851.00
2023-07-06T18:27:56.974Z,94846.97
2023-07-06T18:30:25.537Z,94860.81
2023-07-06T18:32:52.067Z,94863.81
2023-07-06T18:35:18.554Z,94862.72
2023-07-06T18:37:44.892Z,94862.75
2023-07-06T18:40:11.264Z,94864.94
2023-07-06T18:42:37.648Z,94866.00
2023-07-06T18:45:06.124Z,94867.63
2023-07-06T18:47:33.013Z,94864.13
2023-07-06T18:49:59.530Z,94872.00
2023-07-06T18:52:33.119Z,94872.81
2023-07-06T18:55:02.054Z,94870.63
2023-07-06T18:57:30.772Z,94867.06
2023-07-06T19:08:05.173Z,94876.91
2023-07-06T19:10:31.569Z,94879.81
2023-07-06T19:12:57.961Z,94885.72
2023-07-06T19:15:24.820Z,94891.59
2023-07-06T19:17:51.212Z,94889.63
2023-07-06T19:20:17.635Z,94898.16
2023-07-06T19:22:45.100Z,94892.38
2023-07-06T19:25:11.575Z,94885.31
2023-07-06T19:27:37.965Z,94891.13
2023-07-06T19:30:04.332Z,94889.44
2023-07-06T19:32:30.724Z,94890.94
2023-07-06T19:34:57.162Z,94885.47
2023-07-06T19:37:23.534Z,94894.00
2023-07-06T19:39:49.930Z,94898.28
2023-07-06T19:42:16.294Z,94892.78
2023-07-06T19:44:42.649Z,94901.59
2023-07-06T19:47:09.074Z,94906.84
2023-07-06T19:49:35.522Z,94909.34
2023-07-06T19:52:01.875Z,94916.72
2023-07-06T19:54:28.243Z,94911.75
2023-07-06T19:56:56.822Z,94919.13
2023-07-06T19:59:24.064Z,94928.38
2023-07-06T20:01:50.596Z,94926.13
2023-07-06T20:04:17.241Z,94937.88
2023-07-06T20:06:43.976Z,94932.44
2023-07-06T20:09:12.428Z,94933.16
2023-07-06T20:11:38.806Z,94927.72
2023-07-06T20:14:05.342Z,94937.09
2023-07-06T20:16:32.411Z,94931.63
2023-07-06T20:18:59.204Z,94929.13
2023-07-06T20:21:25.583Z,94933.84
2023-07-06T20:23:51.968Z,94935.16
2023-07-06T20:26:18.310Z,94938.81
2023-07-06T20:28:44.709Z,94937.88
2023-07-06T20:31:11.091Z,94942.13
2023-07-06T20:33:37.488Z,94944.50
2023-07-06T20:36:03.896Z,94950.28
2023-07-06T20:38:30.282Z,94948.50
2023-07-06T20:40:57.370Z,94962.59
2023-07-06T20:43:23.981Z,94950.06
2023-07-06T20:45:50.370Z,94947.25
2023-07-06T20:48:16.727Z,94954.69
2023-07-06T20:50:43.133Z,94954.31
2023-07-06T20:53:09.516Z,94952.94
2023-07-06T20:55:35.868Z,94965.94
2023-07-06T20:58:02.210Z,94953.13
2023-07-06T21:00:28.638Z,94964.59
2023-07-06T21:02:55.077Z,94962.34
2023-07-06T21:05:21.438Z,94964.34
2023-07-06T21:07:47.805Z,94969.13
2023-07-06T21:10:14.184Z,94962.09
2023-07-06T21:12:40.573Z,94967.47
2023-07-06T21:15:06.956Z,94964.78
2023-07-06T21:17:33.355Z,94966.31
2023-07-06T21:19:59.724Z,94967.59
2023-07-06T21:22:26.102Z,94971.31
2023-07-06T21:24:52.478Z,94968.75
2023-07-06T21:27:18.862Z,94965.13
2023-07-06T21:29:45.217Z,94963.03
2023-07-06T21:32:11.791Z,94960.94
2023-07-06T21:34:38.284Z,94959.31
2023-07-06T21:37:04.676Z,94960.16
2023-07-06T21:39:31.092Z,94956.50
2023-07-06T21:41:57.460Z,94959.53
2023-07-06T21:44:23.861Z,94956.00
2023-07-06T21:46:50.252Z,94963.69
2023-07-06T21:49:16.635Z,94955.84
2023-07-06T21:51:43.219Z,94953.81
2023-07-06T21:54:09.591Z,94964.72
2023-07-06T21:56:35.926Z,94955.81
2023-07-06T21:59:02.322Z,94964.41
2023-07-06T22:01:28.763Z,94960.78
2023-07-06T22:03:55.187Z,94968.81
2023-07-06T22:06:21.634Z,94970.38
2023-07-06T22:08:48.034Z,94975.44
2023-07-06T22:11:14.394Z,94973.06
2023-07-06T22:13:40.809Z,94975.00
2023-07-06T22:16:07.282Z,94975.13
2023-07-06T22:18:33.715Z,94972.44
2023-07-06T22:21:00.336Z,94980.09
2023-07-06T22:23:26.854Z,94983.66
2023-07-06T22:25:53.247Z,94981.41
2023-07-06T22:28:19.623Z,94985.16
2023-07-06T22:30:46.057Z,94981.13
2023-07-06T22:33:12.410Z,94986.09
2023-07-06T22:35:38.789Z,94988.69
2023-07-06T22:38:05.146Z,94995.66
2023-07-06T22:40:31.497Z,95000.69
2023-07-06T22:42:57.877Z,95001.56
2023-07-06T22:45:24.269Z,94998.97
2023-07-06T22:47:50.674Z,94998.13
2023-07-06T22:50:17.088Z,94997.75
2023-07-06T22:52:43.444Z,95003.75
2023-07-06T22:55:09.820Z,95011.13
2023-07-06T22:57:36.185Z,95009.25
2023-07-06T23:00:02.558Z,95012.75
2023-07-06T23:02:29.075Z,95015.66
2023-07-06T23:04:55.521Z,95004.94
2023-07-06T23:07:21.865Z,95010.72
2023-07-06T23:09:48.217Z,95013.00
2023-07-06T23:12:14.575Z,95012.19
2023-07-06T23:14:40.918Z,95006.03
2023-07-06T23:17:07.556Z,95011.59
2023-07-06T23:19:34.009Z,95010.88
2023-07-06T23:22:00.407Z,95006.84
2023-07-06T23:24:26.783Z,95012.59
2023-07-06T23:26:53.157Z,95008.53
2023-07-06T23:29:19.559Z,95013.78
2023-07-06T23:31:46.845Z,95013.59
2023-07-06T23:34:13.706Z,95012.63
2023-07-06T23:36:40.084Z,95007.91
2023-07-06T23:39:06.489Z,95013.06
2023-07-06T23:41:32.865Z,95016.16
2023-07-06T23:43:59.233Z,95010.25
2023-07-06T23:46:25.628Z,95017.88
2023-07-06T23:48:52.057Z,95011.31
2023-07-06T23:51:18.442Z,95020.81
2023-07-06T23:53:44.828Z,95016.06
2023-07-06T23:56:11.209Z,95014.63
2023-07-06T23:58:37.590Z,95009.09
